Getzville 2E NY

43° 01' 25"N, 78° 44' 55"W, Elevation 589 ft.
Eastern Time

Hourly observations for the last 72 hours

Date Time Temperature (°F) Humi-
dity

(%)
Wind
(mph)
Pressure Rain (in) Sun
(W/m2)
ET
(in)
Air Dew 6 Hour 1 Hr 3 Hr 6 Hr Day
Alt
(in)
Sea
Level

(mb)
Max Min
9 17:00 27.6 22.8 82 W 2 G 7 30.26 1024.8 0.04 0 0.007
9 16:00 29.5 24.1 80 WSW 4 G 10 30.26 1024.7 0.01 0.04 0.04 11 0.006
9 15:00 30.1 24.1 78 SW 5 G 12 30.26 1024.6 0.01 0.03 28 0.005
9 14:00 31.6 24.3 74 W 4 G 11 30.28 1025.3 0.02 0.02 47 0.004
9 13:00 31.1 24.4 31.3 23.0 76 SW 5 G 12 30.29 1025.7 0.00 88 0.003
9 12:00 30.7 25.0 79 SW 5 G 7 30.32 1026.8 0.00 49 0.002
9 11:00 29.8 23.5 77 SW 4 G 7 30.36 1028.2 0.00 40 0.001
9 10:00 27.9 21.6 77 WSW 1 G 4 30.40 1029.4 0.00 25 0.001
9 09:00 26.1 21.4 82 W 1 G 2 30.40 1029.6 0.00 14 0.001
9 08:00 23.9 19.5 83 Calm 30.41 1029.9 0.00 0 0.001
9 07:00 23.1 19.0 25.6 18.6 84 W 0 G 2 30.42 1030.3 0.00 0 0.001
9 06:00 21.0 17.7 87 Calm 30.42 1030.3 0.00 0 0.001
9 05:00 19.0 15.5 86 W 0 G 2 30.44 1031.0 0.00 0 0.001
9 04:00 22.0 16.5 79 W 0 G 3 30.47 1031.8 0.00 0 0.001
9 03:00 25.3 19.4 78 W 2 G 4 30.49 1032.5 0.00 0 0.000
9 02:00 25.4 19.8 79 WNW 4 G 7 30.51 1033.3 0.00 0 0.000
9 01:00 25.0 20.3 26.1 18.8 82 W 2 G 7 30.52 1033.7 0.00 0 0.000
9 00:00 22.5 19.2 87 W 0 G 4 30.54 1034.3 0.01 0 0.011
8 23:00 18.9 15.4 86 W 0 G 1 30.55 1034.5 0.01 0 0.011
8 22:00 23.0 17.8 80 W 0 G 4 30.55 1034.6 0.01 0 0.011
8 21:00 24.9 19.0 78 WSW 2 G 6 30.55 1034.5 0.01 0 0.011
8 20:00 25.7 20.1 79 W 3 G 10 30.56 1034.8 0.01 0 0.010
8 19:00 26.1 20.2 31.0 26.0 78 W 4 G 8 30.56 1034.7 0.01 0.01 0 0.009
8 18:00 26.6 20.1 76 W 4 G 12 30.56 1034.7 0.01 0 0.008
8 17:00 27.4 19.6 72 W 8 G 14 30.52 1033.7 0.01 0 0.007
8 16:00 28.4 19.2 68 W 5 G 11 30.52 1033.5 0.01 0.01 9 0.006
8 15:00 29.2 18.9 65 WNW 4 G 13 30.49 1032.6 0.01 21 0.005
8 14:00 29.1 19.9 68 NNW 7 G 15 30.48 1032.3 0.01 0.01 16 0.004
8 13:00 29.5 22.6 30.0 21.9 75 W 4 G 14 30.50 1032.9 0.00 67 0.003
8 12:00 27.7 22.0 79 W 7 G 12 30.51 1033.2 0.00 72 0.002
8 11:00 26.0 20.1 78 W 6 G 12 30.52 1033.6 0.00 39 0.001
8 10:00 22.9 17.7 80 W 6 G 10 30.53 1033.9 0.00 26 0.000
8 09:00 22.0 17.1 81 W 3 G 11 30.50 1032.9 0.00 11 0.000
8 08:00 22.9 18.5 83 W 3 G 10 30.46 1031.4 0.00 0 0.000
8 07:00 23.6 20.6 23.6 21.6 88 W 4 G 9 30.44 1031.0 0.00 0 0.000
8 06:00 21.9 19.7 91 W 0 G 4 30.43 1030.5 0.00 0 0.000
8 05:00 21.7 19.2 90 Calm 30.40 1029.6 0.00 0 0.000
8 04:00 21.9 19.4 90 ENE 0 G 2 30.40 1029.5 0.00 0 0.000
8 03:00 21.8 19.3 90 ESE 1 G 4 30.41 1029.7 0.00 0 0.000
8 02:00 22.0 18.7 87 SE 1 G 3 30.42 1030.0 0.00 0 0.000
8 01:00 22.2 17.8 22.2 17.0 83 SE 1 G 4 30.41 1029.8 0.00 0 0.000
8 00:00 21.9 17.3 82 NE 0 G 1 30.42 1030.3 0.00 0 0.000
7 23:00 21.0 17.5 86 Calm 30.44 1030.8 0.00 0 0.000
7 22:00 20.2 17.5 89 Calm 30.45 1031.3 0.00 0 0.000
7 21:00 19.3 16.6 89 Calm 30.45 1031.4 0.00 0 0.000
7 20:00 18.2 15.8 90 Calm 30.47 1031.9 0.00 0 0.000
7 19:00 17.1 14.4 24.9 16.0 89 Calm 30.47 1031.7 0.00 0 0.000
7 18:00 16.4 13.2 87 Calm 30.47 1031.9 0.00 0 0.000
7 17:00 20.1 15.5 82 Calm 30.47 1031.9 0.00 0 0.000
7 16:00 23.8 18.2 79 NNE 1 G 3 30.47 1032.0 0.00 7 0.000
7 15:00 23.9 18.9 81 Calm 30.47 1031.8 0.00 16 0.000
7 14:00 23.6 17.8 78 NNW 3 G 8 30.47 1031.8 0.00 9 0.000
7 13:00 24.9 19.0 25.8 16.9 78 N 1 G 4 30.46 1031.6 0.00 16 0.000
7 12:00 23.8 19.1 82 NW 2 G 8 30.48 1032.1 0.00 12 0.000
7 11:00 24.2 20.1 84 W 4 G 5 30.48 1032.3 0.00 32 0.000
7 10:00 23.3 18.9 83 W 2 G 4 30.48 1032.1 0.00 23 0.000
7 09:00 20.8 17.3 86 W 2 G 4 30.45 1031.3 0.00 12 0.000
7 08:00 17.3 14.6 89 W 1 G 3 30.42 1030.3 0.00 0 0.000
7 07:00 16.9 14.2 23.5 16.2 89 W 1 G 3 30.40 1029.6 0.00 0 0.000
7 06:00 17.3 14.4 88 W 1 G 4 30.37 1028.6 0.00 0 0.000
7 05:00 16.4 13.7 89 WSW 1 G 3 30.34 1027.6 0.00 0 0.000
7 04:00 19.1 16.1 88 W 1 G 6 30.32 1026.7 0.00 0 0.000
7 03:00 21.4 17.9 86 W 3 G 6 30.31 1026.4 0.00 0 0.000
7 02:00 22.4 19.4 88 W 4 G 7 30.28 1025.3 0.00 0 0.000
7 01:00 23.0 19.7 30.9 23.0 87 WNW 2 G 4 30.25 1024.3 0.00 0 0.000
7 00:00 24.9 21.0 85 W 4 G 8 30.23 1023.6 0.00 0 0.007
6 23:00 25.3 22.0 87 W 2 G 8 30.19 1022.5 0.00 0 0.007
6 22:00 28.2 24.6 86 WNW 3 G 8 30.16 1021.4 0.00 0 0.007
6 21:00 29.6 26.5 88 W 2 G 7 30.13 1020.3 0.00 0 0.007
6 20:00 30.5 27.9 90 WNW 5 G 11 30.10 1019.2 0.00 0 0.007
6 19:00 30.9 29.1 32.6 30.8 93 W 4 G 6 30.07 1018.3 0.00 0 0.007
6 18:00 31.0 29.2 93 W 2 G 6 30.04 1017.4 0.00 0 0.007

Data generated by WxSolution Version 1.9.1.5, Build 2018.05.20.